createdAt,value
2023-01-25T00:00:52.793Z,-4.04
2023-01-25T00:03:20.590Z,-4.01
2023-01-25T00:05:48.081Z,-3.86
2023-01-25T00:08:15.703Z,-3.71
2023-01-25T00:10:43.217Z,-3.80
2023-01-25T00:13:10.774Z,-3.68
2023-01-25T00:15:38.275Z,-3.60
2023-01-25T00:18:05.936Z,-3.53
2023-01-25T00:20:33.464Z,-3.41
2023-01-25T00:23:00.939Z,-3.43
2023-01-25T00:25:28.467Z,-3.29
2023-01-25T00:27:55.905Z,-3.18
2023-01-25T00:30:23.417Z,-3.11
2023-01-25T00:33:23.738Z,-2.90
2023-01-25T00:35:51.415Z,-2.94
2023-01-25T00:38:29.885Z,-2.83
2023-01-25T00:40:59.180Z,-2.89
2023-01-25T00:43:27.054Z,-2.96
2023-01-25T00:46:01.192Z,-2.79
2023-01-25T00:48:28.923Z,-2.75
2023-01-25T00:51:01.437Z,-2.73
2023-01-25T00:53:29.059Z,-2.81
2023-01-25T00:55:56.748Z,-2.82
2023-01-25T00:58:25.282Z,-2.80
2023-01-25T01:00:54.454Z,-2.87
2023-01-25T01:03:24.169Z,-2.85
2023-01-25T01:06:21.138Z,-2.75
2023-01-25T01:08:48.991Z,-2.88
2023-01-25T01:11:16.430Z,-3.10
2023-01-25T01:13:43.972Z,-2.96
2023-01-25T01:16:14.132Z,-3.00
2023-01-25T01:18:44.235Z,-3.15
2023-01-25T01:21:13.710Z,-3.31
2023-01-25T01:23:41.604Z,-3.13
2023-01-25T01:26:15.433Z,-3.16
2023-01-25T01:28:43.502Z,-3.23
2023-01-25T01:31:31.451Z,-3.10
2023-01-25T01:34:14.882Z,-3.21
2023-01-25T01:36:43.153Z,-3.21
2023-01-25T01:39:10.806Z,-3.18
2023-01-25T01:41:38.921Z,-3.16
2023-01-25T01:44:16.400Z,-3.14
2023-01-25T01:46:51.872Z,-3.13
2023-01-25T01:49:28.490Z,-3.22
2023-01-25T01:52:17.048Z,-3.20
2023-01-25T01:55:09.693Z,-3.32
2023-01-25T01:57:43.874Z,-3.07
2023-01-25T02:00:21.269Z,-3.27
2023-01-25T02:02:51.142Z,-3.17
2023-01-25T02:05:30.830Z,-3.08
2023-01-25T02:07:59.497Z,-3.24
2023-01-25T02:10:28.752Z,-3.24
2023-01-25T02:12:58.801Z,-3.19
2023-01-25T02:15:37.853Z,-3.16
2023-01-25T02:18:05.395Z,-3.18
2023-01-25T02:20:38.311Z,-3.22
2023-01-25T02:23:36.108Z,-3.14
2023-01-25T02:26:06.109Z,-3.23
2023-01-25T02:28:38.999Z,-3.13
2023-01-25T02:31:07.065Z,-3.05
2023-01-25T02:33:35.052Z,-3.05
2023-01-25T02:36:07.323Z,-2.77
2023-01-25T02:38:45.800Z,-2.81
2023-01-25T02:41:18.904Z,-2.70
2023-01-25T02:43:46.841Z,-2.73
2023-01-25T02:46:21.137Z,-2.66
2023-01-25T02:48:49.074Z,-2.67
2023-01-25T02:51:16.522Z,-2.66
2023-01-25T02:53:44.103Z,-2.78
2023-01-25T02:56:11.594Z,-2.69
2023-01-25T02:58:39.112Z,-2.63
2023-01-25T03:01:06.795Z,-2.53
2023-01-25T03:03:34.342Z,-2.48
2023-01-25T03:06:02.424Z,-2.44
2023-01-25T03:08:30.678Z,-2.45
2023-01-25T03:11:00.968Z,-2.45
2023-01-25T03:13:32.476Z,-2.46
2023-01-25T03:16:02.950Z,-2.57
2023-01-25T03:18:30.788Z,-2.66
2023-01-25T03:21:08.750Z,-2.67
2023-01-25T03:23:37.842Z,-2.67
2023-01-25T03:26:20.122Z,-2.58
2023-01-25T03:29:05.839Z,-2.69
2023-01-25T03:31:35.988Z,-2.67
2023-01-25T03:34:03.523Z,-2.71
2023-01-25T03:36:35.510Z,-2.73
2023-01-25T03:39:04.198Z,-2.73
2023-01-25T03:41:36.718Z,-2.73
2023-01-25T03:44:11.732Z,-2.73
2023-01-25T03:46:41.319Z,-2.71
2023-01-25T03:49:09.554Z,-2.81
2023-01-25T03:51:37.327Z,-2.76
2023-01-25T03:54:05.730Z,-2.68
2023-01-25T03:56:36.770Z,-2.69
2023-01-25T03:59:12.816Z,-2.55
2023-01-25T04:01:40.618Z,-2.64
2023-01-25T04:04:08.602Z,-2.69
2023-01-25T04:06:38.566Z,-2.60
2023-01-25T04:09:06.847Z,-2.52
2023-01-25T04:11:39.711Z,-2.58
2023-01-25T04:14:07.322Z,-2.56
2023-01-25T04:16:44.202Z,-2.44
2023-01-25T04:19:38.113Z,-2.40
2023-01-25T04:22:09.609Z,-2.39
2023-01-25T04:24:39.234Z,-2.30
2023-01-25T04:27:07.149Z,-2.33
2023-01-25T04:29:42.040Z,-2.29
2023-01-25T04:32:15.773Z,-2.21
2023-01-25T04:34:43.738Z,-2.17
2023-01-25T04:37:15.759Z,-2.09
2023-01-25T04:39:56.827Z,-2.14
2023-01-25T04:42:24.923Z,-2.10
2023-01-25T04:44:55.732Z,-2.22
2023-01-25T04:47:23.713Z,-2.02
2023-01-25T04:49:51.680Z,-2.08
2023-01-25T04:52:22.937Z,-2.03
2023-01-25T04:54:50.457Z,-2.05
2023-01-25T04:57:18.562Z,-1.97
2023-01-25T04:59:50.894Z,-2.11
2023-01-25T05:02:19.226Z,-2.02
2023-01-25T05:04:46.761Z,-2.08
2023-01-25T05:07:14.500Z,-2.00
2023-01-25T05:09:42.361Z,-1.90
2023-01-25T05:12:13.929Z,-1.87
2023-01-25T05:14:57.736Z,-2.02
2023-01-25T05:17:25.697Z,-1.93
2023-01-25T05:19:53.402Z,-1.89
2023-01-25T05:22:23.644Z,-1.79
2023-01-25T05:24:54.255Z,-1.92
2023-01-25T05:27:23.317Z,-1.80
2023-01-25T05:29:57.314Z,-1.74
2023-01-25T05:32:53.798Z,-1.78
2023-01-25T05:35:23.225Z,-1.84
2023-01-25T05:37:58.815Z,-1.95
2023-01-25T05:40:27.436Z,-1.80
2023-01-25T05:43:02.847Z,-1.68
2023-01-25T05:45:31.807Z,-1.68
2023-01-25T05:47:59.820Z,-1.62
2023-01-25T05:50:28.253Z,-1.65
2023-01-25T05:53:01.269Z,-1.40
2023-01-25T05:55:30.212Z,-1.52
2023-01-25T05:58:02.504Z,-1.56
2023-01-25T06:00:30.092Z,-1.65
2023-01-25T06:03:01.322Z,-1.75
2023-01-25T06:05:31.078Z,-1.61
2023-01-25T06:07:58.871Z,-1.59
2023-01-25T06:10:32.106Z,-1.57
2023-01-25T06:13:00.283Z,-1.56
2023-01-25T06:15:28.186Z,-1.48
2023-01-25T06:18:03.747Z,-1.53
2023-01-25T06:21:07.002Z,-1.40
2023-01-25T06:23:37.506Z,-1.30
2023-01-25T06:26:12.101Z,-1.24
2023-01-25T06:28:40.418Z,-1.15
2023-01-25T06:31:10.928Z,-1.08
2023-01-25T06:33:39.535Z,-0.98
2023-01-25T06:36:12.649Z,-0.86
2023-01-25T06:38:41.146Z,-0.79
2023-01-25T06:41:12.149Z,-0.71
2023-01-25T06:43:40.022Z,-0.68
2023-01-25T06:46:09.431Z,-0.61
2023-01-25T06:48:37.013Z,-0.60
2023-01-25T06:51:07.694Z,-0.69
2023-01-25T06:53:38.665Z,-0.53
2023-01-25T06:56:10.956Z,-0.48
2023-01-25T06:58:40.754Z,-0.55
2023-01-25T07:01:20.812Z,-0.49
2023-01-25T07:03:53.394Z,-0.47
2023-01-25T07:06:22.034Z,-0.48
2023-01-25T07:08:49.952Z,-0.48
2023-01-25T07:11:19.371Z,-0.52
2023-01-25T07:13:48.325Z,-0.64
2023-01-25T07:16:20.668Z,-0.68
2023-01-25T07:18:48.592Z,-0.54
2023-01-25T07:21:17.562Z,-0.52
2023-01-25T07:23:45.159Z,-0.53
2023-01-25T07:26:22.791Z,-0.39
2023-01-25T07:28:50.983Z,-0.36
2023-01-25T07:31:20.351Z,-0.27
2023-01-25T07:33:53.889Z,-0.26
2023-01-25T07:36:22.188Z,-0.18
2023-01-25T07:38:54.039Z,-0.17
2023-01-25T07:41:22.428Z,-0.16
2023-01-25T07:43:52.604Z,-0.09
2023-01-25T07:46:41.558Z,0.00
2023-01-25T07:49:09.379Z,-0.02
2023-01-25T07:51:36.940Z,0.02
2023-01-25T07:54:05.669Z,0.06
2023-01-25T07:56:38.026Z,0.14
2023-01-25T07:59:08.535Z,0.12
2023-01-25T08:01:37.323Z,0.15
2023-01-25T08:04:05.854Z,0.17
2023-01-25T08:06:36.355Z,0.02
2023-01-25T08:09:22.789Z,0.15
2023-01-25T08:11:50.523Z,0.09
2023-01-25T08:14:18.257Z,0.12
2023-01-25T08:16:45.722Z,-0.11
2023-01-25T08:19:13.255Z,-0.22
2023-01-25T08:21:40.996Z,-0.33
2023-01-25T08:24:09.926Z,-0.44
2023-01-25T08:26:38.174Z,-0.41
2023-01-25T08:29:06.961Z,-0.23
2023-01-25T08:31:36.314Z,-0.36
2023-01-25T08:34:04.687Z,-0.36
2023-01-25T08:36:32.282Z,-0.35
2023-01-25T08:39:02.776Z,-0.29
2023-01-25T08:41:32.879Z,-0.43
2023-01-25T08:44:00.432Z,-0.45
2023-01-25T08:46:32.093Z,-0.44
2023-01-25T08:49:01.618Z,-0.74
2023-01-25T08:51:31.831Z,-0.78
2023-01-25T08:54:04.517Z,-0.65
2023-01-25T08:56:32.135Z,-0.67
2023-01-25T08:58:59.649Z,-0.58
2023-01-25T09:01:27.143Z,-0.55
2023-01-25T09:03:55.537Z,-0.64
2023-01-25T09:06:23.062Z,-0.61
2023-01-25T09:08:50.777Z,-0.74
2023-01-25T09:11:21.334Z,-0.97
2023-01-25T09:13:49.495Z,-0.99
2023-01-25T09:16:29.016Z,-0.82
2023-01-25T09:18:58.491Z,-0.83
2023-01-25T09:21:26.023Z,-0.90
2023-01-25T09:24:10.009Z,-0.92
2023-01-25T09:26:43.032Z,-0.81
2023-01-25T09:29:13.712Z,-0.83
2023-01-25T09:31:44.021Z,-0.91
2023-01-25T09:34:32.508Z,-1.08
2023-01-25T09:37:00.084Z,-0.97
2023-01-25T09:39:27.533Z,-0.90
2023-01-25T09:42:32.991Z,-0.79
2023-01-25T09:45:12.634Z,-0.85
2023-01-25T09:47:59.704Z,-0.72
2023-01-25T09:51:14.163Z,-0.54
2023-01-25T09:54:01.457Z,-0.78
2023-01-25T09:56:35.866Z,-0.73
2023-01-25T09:59:16.351Z,-0.85
2023-01-25T10:01:51.974Z,-0.81
2023-01-25T10:04:23.796Z,-0.85
2023-01-25T10:07:00.991Z,-0.80
2023-01-25T10:09:34.845Z,-0.88
2023-01-25T10:12:15.696Z,-0.74
2023-01-25T10:14:43.365Z,-0.78
2023-01-25T10:17:26.094Z,-0.68
2023-01-25T10:20:17.987Z,-0.70
2023-01-25T10:22:51.878Z,-0.75
2023-01-25T10:25:37.718Z,-0.62
2023-01-25T10:28:28.499Z,-0.83
2023-01-25T10:31:03.093Z,-0.82
2023-01-25T10:33:36.313Z,-0.89
2023-01-25T10:36:05.130Z,-0.87
2023-01-25T10:38:45.682Z,-1.01
2023-01-25T10:41:27.187Z,-0.98
2023-01-25T10:44:13.438Z,-1.11
2023-01-25T10:46:44.642Z,-1.18
2023-01-25T10:49:27.497Z,-1.17
2023-01-25T10:51:55.710Z,-1.27
2023-01-25T10:54:24.438Z,-1.25
2023-01-25T10:56:53.408Z,-1.24
2023-01-25T10:59:25.945Z,-1.21
2023-01-25T11:01:53.685Z,-1.25
2023-01-25T11:04:45.866Z,-1.20
2023-01-25T11:07:27.798Z,-1.38
2023-01-25T11:09:55.499Z,-1.53
2023-01-25T11:12:23.116Z,-1.59
2023-01-25T11:14:51.397Z,-1.52
2023-01-25T11:17:31.933Z,-1.50
2023-01-25T11:20:16.397Z,-1.72
2023-01-25T11:22:55.756Z,-1.83
2023-01-25T11:25:32.227Z,-1.68
2023-01-25T11:28:19.168Z,-1.63
2023-01-25T11:30:47.879Z,-1.86
2023-01-25T11:33:17.381Z,-1.79
2023-01-25T11:36:13.888Z,-1.71
2023-01-25T11:39:03.565Z,-1.62
2023-01-25T11:41:46.764Z,-1.58
2023-01-25T11:44:20.374Z,-1.56
2023-01-25T11:47:32.903Z,-1.42
2023-01-25T11:50:00.339Z,-1.45
2023-01-25T11:52:37.540Z,-1.42
2023-01-25T11:55:26.576Z,-1.27
2023-01-25T11:58:07.008Z,-1.31
2023-01-25T12:01:05.142Z,-1.38
2023-01-25T12:04:17.944Z,-1.41
2023-01-25T12:07:20.725Z,-1.36
2023-01-25T12:10:08.280Z,-1.25
2023-01-25T12:12:42.620Z,-1.34
2023-01-25T12:15:22.211Z,-1.22
2023-01-25T12:18:20.231Z,-1.26
2023-01-25T12:21:11.825Z,-1.52
2023-01-25T12:23:59.615Z,-1.61
2023-01-25T12:27:05.019Z,-1.55
2023-01-25T12:29:48.576Z,-1.68
2023-01-25T12:32:34.032Z,-1.76
2023-01-25T12:35:25.976Z,-1.85
2023-01-25T12:38:00.099Z,-1.84
2023-01-25T12:40:41.959Z,-2.00
2023-01-25T12:43:37.592Z,-2.05
2023-01-25T12:46:30.309Z,-2.10
2023-01-25T12:49:04.130Z,-2.00
2023-01-25T12:51:40.168Z,-2.05
2023-01-25T12:54:20.289Z,-2.00
2023-01-25T12:57:10.527Z,-2.02
2023-01-25T12:59:56.293Z,-2.26
2023-01-25T13:02:45.391Z,-2.23
2023-01-25T13:05:24.992Z,-2.29
2023-01-25T13:08:30.114Z,-2.41
2023-01-25T13:11:33.897Z,-2.29
2023-01-25T13:14:16.620Z,-2.36
2023-01-25T13:17:08.547Z,-2.50
2023-01-25T13:19:37.942Z,-2.69
2023-01-25T13:22:05.835Z,-2.62
2023-01-25T13:24:54.434Z,-2.76
2023-01-25T13:27:29.717Z,-2.69
2023-01-25T13:30:18.577Z,-2.96
2023-01-25T13:32:52.483Z,-2.85
2023-01-25T13:35:33.384Z,-2.83
2023-01-25T13:38:11.829Z,-2.92
2023-01-25T13:40:40.816Z,-3.16
2023-01-25T13:43:22.780Z,-3.07
2023-01-25T13:45:53.617Z,-3.12
2023-01-25T13:48:29.187Z,-3.11
2023-01-25T13:51:05.728Z,-3.18
2023-01-25T13:53:39.884Z,-3.27
2023-01-25T13:56:25.521Z,-3.33
2023-01-25T13:58:53.198Z,-3.22
2023-01-25T14:01:24.000Z,-3.19
2023-01-25T14:03:59.970Z,-3.38
2023-01-25T14:06:34.842Z,-3.23
2023-01-25T14:09:08.325Z,-3.36
2023-01-25T14:11:44.121Z,-3.32
2023-01-25T14:14:25.374Z,-3.08
2023-01-25T14:17:14.469Z,-3.07
2023-01-25T14:19:51.376Z,-3.42
2023-01-25T14:22:27.636Z,-3.15
2023-01-25T14:25:10.025Z,-3.16
2023-01-25T14:27:46.039Z,-3.22
2023-01-25T14:30:40.393Z,-3.24
2023-01-25T14:33:29.096Z,-3.14
2023-01-25T14:36:16.159Z,-3.17
2023-01-25T14:38:53.126Z,-3.33
2023-01-25T14:41:34.296Z,-3.23
2023-01-25T14:44:10.856Z,-3.47
2023-01-25T14:46:39.646Z,-3.43
2023-01-25T14:49:27.651Z,-3.38
2023-01-25T14:52:14.748Z,-3.27
2023-01-25T14:55:00.133Z,-3.23
2023-01-25T14:57:37.204Z,-3.22
2023-01-25T15:00:24.501Z,-3.27
2023-01-25T15:02:56.606Z,-3.47
2023-01-25T15:05:35.543Z,-3.44
2023-01-25T15:08:09.239Z,-3.34
2023-01-25T15:10:38.590Z,-3.35
2023-01-25T15:13:15.545Z,-3.31
2023-01-25T15:15:58.772Z,-3.49
2023-01-25T15:18:52.624Z,-3.36
2023-01-25T15:21:26.195Z,-3.50
2023-01-25T15:23:55.735Z,-3.46
2023-01-25T15:26:31.135Z,-3.46
2023-01-25T15:29:16.769Z,-3.42
2023-01-25T15:31:44.826Z,-3.70
2023-01-25T15:34:26.119Z,-3.55
2023-01-25T15:36:54.349Z,-3.88
2023-01-25T15:39:22.238Z,-3.90
2023-01-25T15:41:50.161Z,-3.95
2023-01-25T15:44:20.457Z,-3.89
2023-01-25T15:46:51.243Z,-4.04
2023-01-25T15:49:25.990Z,-3.78
2023-01-25T15:51:55.179Z,-3.89
2023-01-25T15:54:23.933Z,-4.15
2023-01-25T15:56:55.900Z,-4.23
2023-01-25T15:59:23.686Z,-4.24
2023-01-25T16:01:51.400Z,-4.33
2023-01-25T16:04:19.131Z,-4.28
2023-01-25T16:06:53.042Z,-4.21
2023-01-25T16:09:30.155Z,-4.22
2023-01-25T16:11:59.724Z,-4.15
2023-01-25T16:14:30.603Z,-4.12
2023-01-25T16:17:02.121Z,-4.08
2023-01-25T16:19:30.453Z,-4.12
2023-01-25T16:21:58.381Z,-4.15
2023-01-25T16:24:26.171Z,-4.12
2023-01-25T16:27:03.709Z,-4.26
2023-01-25T16:29:37.723Z,-4.18
2023-01-25T16:32:05.371Z,-4.26
2023-01-25T16:34:32.888Z,-4.34
2023-01-25T16:37:02.065Z,-4.42
2023-01-25T16:39:29.624Z,-4.45
2023-01-25T16:41:59.792Z,-4.47
2023-01-25T16:44:27.536Z,-4.43
2023-01-25T16:46:55.845Z,-4.44
2023-01-25T16:49:28.429Z,-4.42
2023-01-25T16:52:00.391Z,-4.32
2023-01-25T16:54:28.260Z,-4.22
2023-01-25T16:56:59.035Z,-4.08
2023-01-25T16:59:27.979Z,-4.07
2023-01-25T17:01:56.489Z,-4.00
2023-01-25T17:04:24.355Z,-4.03
2023-01-25T17:06:53.520Z,-3.99
2023-01-25T17:09:24.088Z,-4.03
2023-01-25T17:11:56.327Z,-4.02
2023-01-25T17:14:24.094Z,-4.16
2023-01-25T17:16:55.340Z,-4.13
2023-01-25T17:19:28.868Z,-4.19
2023-01-25T17:22:01.807Z,-4.20
2023-01-25T17:24:31.856Z,-4.22
2023-01-25T17:27:01.339Z,-4.23
2023-01-25T17:29:32.786Z,-4.16
2023-01-25T17:32:00.466Z,-4.13
2023-01-25T17:34:28.062Z,-4.12
2023-01-25T17:36:55.877Z,-4.17
2023-01-25T17:39:23.535Z,-4.06
2023-01-25T17:41:52.037Z,-4.04
2023-01-25T17:44:22.121Z,-4.00
2023-01-25T17:46:51.678Z,-4.03
2023-01-25T17:49:19.836Z,-4.03
2023-01-25T17:51:47.407Z,-3.94
2023-01-25T17:54:15.391Z,-4.01
2023-01-25T17:56:42.949Z,-4.02
2023-01-25T17:59:11.892Z,-3.97
2023-01-25T18:01:40.239Z,-3.88
2023-01-25T18:04:08.937Z,-3.90
2023-01-25T18:06:37.007Z,-3.93
2023-01-25T18:09:06.851Z,-3.96
2023-01-25T18:11:35.768Z,-4.02
2023-01-25T18:14:09.554Z,-3.98
2023-01-25T18:16:39.519Z,-4.01
2023-01-25T18:19:08.414Z,-4.04
2023-01-25T18:21:36.492Z,-4.08
2023-01-25T18:24:08.156Z,-4.00
2023-01-25T18:26:37.388Z,-4.05
2023-01-25T18:29:11.083Z,-4.01
2023-01-25T18:31:38.801Z,-4.20
2023-01-25T18:34:06.317Z,-4.20
2023-01-25T18:36:34.056Z,-4.21
2023-01-25T18:39:01.764Z,-4.24
2023-01-25T18:41:29.339Z,-4.21
2023-01-25T18:43:57.076Z,-4.18
2023-01-25T18:46:24.709Z,-4.37
2023-01-25T18:48:53.697Z,-4.26
2023-01-25T18:51:23.467Z,-4.12
2023-01-25T18:53:51.462Z,-4.31
2023-01-25T18:56:21.795Z,-4.47
2023-01-25T18:58:51.281Z,-4.65
2023-01-25T19:01:23.268Z,-4.50
2023-01-25T19:03:55.875Z,-4.65
2023-01-25T19:06:28.858Z,-4.69
2023-01-25T19:08:57.468Z,-4.68
2023-01-25T19:11:25.001Z,-4.54
2023-01-25T19:13:52.482Z,-4.46
2023-01-25T19:16:24.675Z,-4.45
2023-01-25T19:18:54.626Z,-4.33
2023-01-25T19:21:28.057Z,-4.17
2023-01-25T19:23:56.683Z,-4.14
2023-01-25T19:26:25.941Z,-4.04
2023-01-25T19:28:54.320Z,-4.02
2023-01-25T19:31:24.158Z,-4.09
2023-01-25T19:33:56.915Z,-3.98
2023-01-25T19:36:24.440Z,-4.02
2023-01-25T19:38:51.959Z,-4.00
2023-01-25T19:41:25.324Z,-3.92
2023-01-25T19:44:03.560Z,-4.03
2023-01-25T19:46:33.168Z,-4.01
2023-01-25T19:49:02.423Z,-4.21
2023-01-25T19:51:35.540Z,-4.07
2023-01-25T19:54:06.710Z,-4.08
2023-01-25T19:56:36.858Z,-4.00
2023-01-25T19:59:07.427Z,-3.92
2023-01-25T20:01:37.470Z,-3.82
2023-01-25T20:04:08.267Z,-3.70
2023-01-25T20:06:35.948Z,-3.63
2023-01-25T20:09:03.707Z,-3.64
2023-01-25T20:11:33.114Z,-3.61
2023-01-25T20:14:03.910Z,-3.65
2023-01-25T20:16:33.389Z,-3.70
2023-01-25T20:19:02.393Z,-3.69
2023-01-25T20:21:31.686Z,-3.61
2023-01-25T20:24:04.154Z,-3.63
2023-01-25T20:26:34.690Z,-3.64
2023-01-25T20:29:02.338Z,-3.58
2023-01-25T20:31:38.328Z,-3.62
2023-01-25T20:34:10.227Z,-3.67
2023-01-25T20:36:37.896Z,-3.90
2023-01-25T20:39:06.991Z,-3.86
2023-01-25T20:41:35.886Z,-3.89
2023-01-25T20:44:11.502Z,-3.71
2023-01-25T20:46:40.865Z,-3.67
2023-01-25T20:49:11.565Z,-3.49
2023-01-25T20:51:40.174Z,-3.64
2023-01-25T20:54:07.721Z,-3.42
2023-01-25T20:56:36.794Z,-3.55
2023-01-25T20:59:04.510Z,-3.48
2023-01-25T21:01:37.557Z,-3.53
2023-01-25T21:04:08.234Z,-3.52
2023-01-25T21:06:36.247Z,-3.60
2023-01-25T21:09:04.511Z,-3.55
2023-01-25T21:11:32.626Z,-3.60
2023-01-25T21:14:00.210Z,-3.64
2023-01-25T21:16:28.181Z,-3.69
2023-01-25T21:18:58.226Z,-3.66
2023-01-25T21:21:28.526Z,-3.65
2023-01-25T21:24:00.426Z,-3.73
2023-01-25T21:26:33.063Z,-3.66
2023-01-25T21:29:06.710Z,-3.59
2023-01-25T21:31:39.552Z,-3.63
2023-01-25T21:34:08.576Z,-3.66
2023-01-25T21:36:36.134Z,-3.71
2023-01-25T21:39:03.805Z,-3.73
2023-01-25T21:41:33.932Z,-3.64
2023-01-25T21:44:20.629Z,-3.65
2023-01-25T21:49:54.097Z,-3.72
2023-01-25T21:52:21.595Z,-3.68
2023-01-25T21:54:49.125Z,-3.73
2023-01-25T21:57:16.821Z,-3.69
2023-01-25T21:59:44.323Z,-3.72
2023-01-25T22:02:15.106Z,-3.72
2023-01-25T22:04:42.811Z,-3.76
2023-01-25T22:07:12.136Z,-3.73
2023-01-25T22:09:39.728Z,-3.71
2023-01-25T22:12:07.520Z,-3.69
2023-01-25T22:14:35.236Z,-3.70
2023-01-25T22:17:03.502Z,-3.71
2023-01-25T22:19:30.986Z,-3.70
2023-01-25T22:21:58.464Z,-3.70
2023-01-25T22:24:26.160Z,-3.71
2023-01-25T22:27:09.004Z,-3.63
2023-01-25T22:29:36.565Z,-3.69
2023-01-25T22:32:04.373Z,-3.65
2023-01-25T22:34:31.925Z,-3.60
2023-01-25T22:36:59.447Z,-3.66
2023-01-25T22:39:27.545Z,-3.52
2023-01-25T22:41:56.672Z,-3.62
2023-01-25T22:44:24.172Z,-3.50
2023-01-25T22:46:53.166Z,-3.50
2023-01-25T22:49:20.778Z,-3.50
2023-01-25T22:51:48.303Z,-3.45
2023-01-25T22:54:15.750Z,-3.39
2023-01-25T22:56:43.304Z,-3.39
2023-01-25T22:59:15.035Z,-3.33
2023-01-25T23:01:42.529Z,-3.37
2023-01-25T23:04:10.216Z,-3.39
2023-01-25T23:06:38.352Z,-3.35
2023-01-25T23:09:15.842Z,-3.33
2023-01-25T23:11:43.804Z,-3.33
2023-01-25T23:14:31.269Z,-3.25
2023-01-25T23:17:17.180Z,-3.32
2023-01-25T23:19:45.140Z,-3.32
2023-01-25T23:22:12.946Z,-3.31
2023-01-25T23:24:40.557Z,-3.24
2023-01-25T23:27:08.149Z,-3.31
2023-01-25T23:29:35.661Z,-3.23
2023-01-25T23:32:03.176Z,-3.24
2023-01-25T23:34:35.088Z,-3.39
2023-01-25T23:37:02.669Z,-3.24
2023-01-25T23:39:30.253Z,-3.23
2023-01-25T23:41:57.803Z,-3.24
2023-01-25T23:44:25.361Z,-3.27
2023-01-25T23:46:52.877Z,-3.29
2023-01-25T23:49:20.560Z,-3.28
2023-01-25T23:51:48.037Z,-3.15
2023-01-25T23:54:15.708Z,-3.19
2023-01-25T23:56:43.368Z,-3.15
2023-01-25T23:59:10.999Z,-3.16
